createdAt,value
2022-10-09T00:03:56.525Z,23.6
2022-10-09T00:09:15.311Z,23.7
2022-10-09T00:14:33.787Z,23.7
2022-10-09T00:19:52.539Z,23.7
2022-10-09T00:25:10.503Z,23.7
2022-10-09T00:30:28.750Z,23.7
2022-10-09T00:35:47.137Z,23.7
2022-10-09T00:41:05.895Z,23.7
2022-10-09T00:46:24.651Z,23.7
2022-10-09T00:51:43.185Z,23.7
2022-10-09T00:57:01.691Z,23.7
2022-10-09T01:02:19.798Z,23.7
2022-10-09T01:07:38.356Z,23.7
2022-10-09T01:12:56.857Z,23.7
2022-10-09T01:18:14.750Z,23.8
2022-10-09T01:23:32.958Z,23.7
2022-10-09T01:28:51.488Z,23.7
2022-10-09T01:34:09.664Z,23.7
2022-10-09T01:39:28.430Z,23.7
2022-10-09T01:44:46.944Z,23.7
2022-10-09T01:50:05.686Z,23.7
2022-10-09T01:55:24.450Z,23.7
2022-10-09T02:00:42.973Z,23.7
2022-10-09T02:06:01.707Z,23.7
2022-10-09T02:11:20.195Z,23.7
2022-10-09T02:16:38.984Z,23.7
2022-10-09T02:21:57.263Z,23.8
2022-10-09T02:27:15.487Z,23.7
2022-10-09T02:32:33.707Z,23.7
2022-10-09T02:37:52.178Z,23.7
2022-10-09T02:43:10.670Z,23.8
2022-10-09T02:48:29.198Z,23.7
2022-10-09T02:53:47.392Z,23.7
2022-10-09T02:59:06.166Z,23.8
2022-10-09T03:04:25.047Z,23.8
2022-10-09T03:09:43.492Z,23.7
2022-10-09T03:15:01.693Z,23.8
2022-10-09T03:20:20.487Z,23.8
2022-10-09T03:25:39.219Z,23.8
2022-10-09T03:30:57.478Z,23.8
2022-10-09T03:36:16.118Z,23.8
2022-10-09T03:41:34.585Z,23.8
2022-10-09T03:46:53.537Z,23.8
2022-10-09T03:52:12.050Z,23.8
2022-10-09T03:57:30.801Z,23.7
2022-10-09T04:02:50.251Z,23.7
2022-10-09T04:08:09.294Z,23.7
2022-10-09T04:13:28.026Z,23.7
2022-10-09T04:18:46.525Z,23.7
2022-10-09T04:24:05.045Z,23.7
2022-10-09T04:29:23.215Z,23.7
2022-10-09T04:34:41.710Z,23.7
2022-10-09T04:40:00.526Z,23.7
2022-10-09T04:45:18.420Z,23.7
2022-10-09T04:50:37.183Z,23.7
2022-10-09T04:55:55.692Z,23.7
2022-10-09T05:01:13.716Z,23.7
2022-10-09T05:06:31.761Z,23.7
2022-10-09T05:11:50.272Z,23.7
2022-10-09T05:17:15.174Z,23.7
2022-10-09T05:22:36.045Z,23.7
2022-10-09T05:27:54.579Z,23.7
2022-10-09T05:33:13.068Z,23.8
2022-10-09T05:38:31.845Z,23.8
2022-10-09T05:43:50.734Z,23.8
2022-10-09T05:49:09.498Z,23.8
2022-10-09T05:54:27.711Z,23.9
2022-10-09T05:59:46.229Z,24
2022-10-09T06:05:04.695Z,24
2022-10-09T06:10:23.518Z,24
2022-10-09T06:15:42.032Z,24.1
2022-10-09T06:21:00.302Z,24.1
2022-10-09T06:26:19.025Z,24.1
2022-10-09T06:31:37.654Z,24.2
2022-10-09T06:36:55.828Z,24.2
2022-10-09T06:42:14.318Z,24.3
2022-10-09T06:47:33.120Z,24.3
2022-10-09T06:52:52.316Z,24.3
2022-10-09T06:58:11.046Z,24.3
2022-10-09T07:03:29.985Z,24.3
2022-10-09T07:08:48.166Z,24.3
2022-10-09T07:14:06.660Z,24.3
2022-10-09T07:19:25.166Z,24.4
2022-10-09T07:24:43.897Z,24.4
2022-10-09T07:30:02.948Z,24.4
2022-10-09T07:35:21.531Z,24.5
2022-10-09T07:40:39.989Z,24.5
2022-10-09T07:45:58.689Z,24.5
2022-10-09T07:51:16.611Z,24.5
2022-10-09T07:56:35.072Z,24.5
2022-10-09T08:01:53.748Z,24.6
2022-10-09T08:07:12.360Z,24.6
2022-10-09T08:12:33.904Z,24.6
2022-10-09T08:17:52.600Z,24.7
2022-10-09T08:23:11.354Z,24.7
2022-10-09T08:28:30.265Z,24.7
2022-10-09T08:33:48.598Z,24.7
2022-10-09T08:39:07.384Z,24.7
2022-10-09T08:44:26.139Z,24.7
2022-10-09T08:49:44.887Z,24.7
2022-10-09T08:55:03.692Z,24.8
2022-10-09T09:00:22.401Z,24.8
2022-10-09T09:05:40.578Z,24.8
2022-10-09T09:10:58.811Z,24.8
2022-10-09T09:16:17.433Z,24.8
2022-10-09T09:21:35.823Z,24.9
2022-10-09T09:26:54.332Z,24.9
2022-10-09T09:32:12.794Z,24.9
2022-10-09T09:37:31.269Z,24.9
2022-10-09T09:42:50.586Z,25
2022-10-09T09:48:09.974Z,25
2022-10-09T09:53:27.892Z,25
2022-10-09T09:58:30.793Z,25
2022-10-09T10:03:48.967Z,25.1
2022-10-09T10:09:07.725Z,25.1
2022-10-09T10:14:26.229Z,25.1
2022-10-09T10:19:44.678Z,25.1
2022-10-09T10:25:02.599Z,25.1
2022-10-09T10:30:21.088Z,25.1
2022-10-09T10:35:39.913Z,25.1
2022-10-09T10:40:58.542Z,25.1
2022-10-09T10:46:17.418Z,25.1
2022-10-09T10:51:36.055Z,25.2
2022-10-09T10:56:54.258Z,25.1
2022-10-09T11:02:13.036Z,25.1
2022-10-09T11:07:31.226Z,25.1
2022-10-09T11:12:49.683Z,25.1
2022-10-09T11:18:08.466Z,25
2022-10-09T11:23:11.736Z,24.9
2022-10-09T11:28:29.897Z,24.9
2022-10-09T11:33:48.908Z,25
2022-10-09T11:39:07.347Z,24.9
2022-10-09T11:44:25.826Z,24.9
2022-10-09T11:49:44.055Z,24.8
2022-10-09T11:55:02.515Z,24.8
2022-10-09T12:00:21.001Z,24.7
2022-10-09T12:05:39.245Z,24.7
2022-10-09T12:10:57.397Z,24.7
2022-10-09T12:16:16.060Z,24.6
2022-10-09T12:21:34.051Z,24.6
2022-10-09T12:26:52.514Z,24.6
2022-10-09T12:32:11.000Z,24.6
2022-10-09T12:37:29.226Z,24.5
2022-10-09T12:42:48.470Z,24.4
2022-10-09T12:48:07.253Z,24.5
2022-10-09T12:53:25.469Z,24.5
2022-10-09T12:58:43.643Z,24.5
2022-10-09T13:04:02.408Z,24.4
2022-10-09T13:09:20.913Z,24.4
2022-10-09T13:14:39.368Z,24.4
2022-10-09T13:19:57.585Z,24.4
2022-10-09T13:25:16.097Z,24.4
2022-10-09T13:30:34.987Z,24.3
2022-10-09T13:35:53.515Z,24.3
2022-10-09T13:41:12.028Z,24.4
2022-10-09T13:46:30.935Z,24.3
2022-10-09T13:51:49.334Z,24.4
2022-10-09T13:57:08.121Z,24.4
2022-10-09T14:02:26.570Z,24.3
2022-10-09T14:07:45.607Z,24.3
2022-10-09T14:13:03.941Z,24.3
2022-10-09T14:18:22.401Z,24.3
2022-10-09T14:23:41.150Z,24.3
2022-10-09T14:28:59.650Z,24.4
2022-10-09T14:34:18.111Z,24.4
2022-10-09T14:39:36.876Z,24.5
2022-10-09T14:44:56.597Z,24.5
2022-10-09T14:50:14.777Z,24.6
2022-10-09T14:55:33.256Z,24.5
2022-10-09T15:00:51.774Z,24.6
2022-10-09T15:06:09.644Z,24.5
2022-10-09T15:11:28.136Z,24.5
2022-10-09T15:16:46.077Z,24.5
2022-10-09T15:22:04.517Z,24.5
2022-10-09T15:27:23.292Z,24.5
2022-10-09T15:32:41.661Z,24.5
2022-10-09T15:37:59.830Z,24.6
2022-10-09T15:43:18.312Z,24.6
2022-10-09T15:48:36.836Z,24.6
2022-10-09T15:53:55.582Z,24.6
2022-10-09T15:59:14.360Z,24.6
2022-10-09T16:04:32.584Z,24.6
2022-10-09T16:09:51.027Z,24.6
2022-10-09T16:15:10.093Z,24.6
2022-10-09T16:20:28.889Z,24.6
2022-10-09T16:25:47.094Z,24.6
2022-10-09T16:31:05.569Z,24.5
2022-10-09T16:36:24.436Z,24.6
2022-10-09T16:41:27.068Z,24.6
2022-10-09T16:46:45.457Z,24.6
2022-10-09T16:52:03.683Z,24.6
2022-10-09T16:57:22.151Z,24.6
2022-10-09T17:02:40.912Z,24.6
2022-10-09T17:07:59.169Z,24.4
2022-10-09T17:13:02.717Z,24.3
2022-10-09T17:18:21.481Z,24.2
2022-10-09T17:23:40.263Z,24.3
2022-10-09T17:28:59.071Z,24.3
2022-10-09T17:34:17.757Z,24.3
2022-10-09T17:39:35.788Z,24.3
2022-10-09T17:44:54.301Z,24.3
2022-10-09T17:50:13.057Z,24.3
2022-10-09T17:55:31.296Z,24.3
2022-10-09T18:00:49.812Z,24.3
2022-10-09T18:06:08.477Z,24.3
2022-10-09T18:11:26.993Z,24.2
2022-10-09T18:16:45.734Z,24.3
2022-10-09T18:22:04.496Z,24.2
2022-10-09T18:27:22.731Z,24.2
2022-10-09T18:32:41.483Z,24.2
2022-10-09T18:38:00.259Z,24.2
2022-10-09T18:43:18.740Z,24.2
2022-10-09T18:48:37.173Z,24.2
2022-10-09T18:53:55.663Z,24.2
2022-10-09T18:59:14.204Z,24.2
2022-10-09T19:04:32.645Z,24.2
2022-10-09T19:09:57.674Z,24.2
2022-10-09T19:15:15.917Z,24.2
2022-10-09T19:20:34.374Z,24.2
2022-10-09T19:25:52.567Z,24.2
2022-10-09T19:31:10.810Z,24.2
2022-10-09T19:36:29.550Z,24.2
2022-10-09T19:41:47.762Z,24.2
2022-10-09T19:47:08.966Z,24.2
2022-10-09T19:52:27.413Z,24.2
2022-10-09T19:57:45.911Z,24.2
2022-10-09T20:03:03.847Z,24.2
2022-10-09T20:08:22.301Z,24.2
2022-10-09T20:13:41.067Z,24.2
2022-10-09T20:18:59.569Z,24.2
2022-10-09T20:24:17.752Z,24.2
2022-10-09T20:29:35.966Z,24.2
2022-10-09T20:34:54.194Z,24.2
2022-10-09T20:40:12.658Z,24.2
2022-10-09T20:45:31.418Z,24.2
2022-10-09T20:50:49.942Z,24.1
2022-10-09T20:56:08.403Z,24.1
2022-10-09T21:01:26.796Z,24.1
2022-10-09T21:06:29.816Z,24.1
2022-10-09T21:11:48.288Z,24.1
2022-10-09T21:17:07.044Z,24.1
2022-10-09T21:22:25.828Z,24.1
2022-10-09T21:27:44.016Z,24.1
2022-10-09T21:33:02.515Z,24.1
2022-10-09T21:38:20.781Z,24.1
2022-10-09T21:43:38.911Z,24.1
2022-10-09T21:48:57.101Z,24.1
2022-10-09T21:54:15.346Z,24.1
2022-10-09T21:59:33.817Z,24.1
2022-10-09T22:04:52.007Z,24.1
2022-10-09T22:10:10.251Z,24.1
2022-10-09T22:15:28.154Z,24.1
2022-10-09T22:20:46.637Z,24.1
2022-10-09T22:26:04.874Z,24.1
2022-10-09T22:31:23.062Z,24.1
2022-10-09T22:36:41.559Z,24.1
2022-10-09T22:42:00.110Z,24.1
2022-10-09T22:47:18.828Z,24.1
2022-10-09T22:52:37.055Z,24.1
2022-10-09T22:57:55.826Z,24.1
2022-10-09T23:03:14.283Z,24.1
2022-10-09T23:08:33.051Z,24.1
2022-10-09T23:13:51.311Z,24.1
2022-10-09T23:19:09.475Z,24.1
2022-10-09T23:24:27.967Z,24.1
2022-10-09T23:29:46.487Z,24.1
2022-10-09T23:35:05.239Z,24.1
2022-10-09T23:40:24.022Z,24
2022-10-09T23:45:42.883Z,24
2022-10-09T23:51:01.416Z,24
2022-10-09T23:56:20.030Z,24.1
